Main page


Airports :

Middle Wallop, England

AAC Middle Wallop

latitude: 51-09N, longitude: 001-34W, elevation: 91 m

Current weather observation

The report was made 57 minutes ago, at 16:50 UTC
Wind 9 kt from the North/Northeast
Temperature 7°C
Humidity 53%
Pressure 1031 hPa
Visibility 10 km or more
Scattered clouds at a height of 3800 ft
Broken clouds at a height of 25000 ft

METAR: EGVP 201650Z 03009KT 9999 SCT038 BKN250 07/M02 Q1031 BLU NOSIG

Time: 17:47 (17:47 UTC)


The report was made 1 hour and 24 minutes ago, at 16:23 UTC
Forecast valid from 20 at 18 UTC to 21 at 01 UTC
Wind 6 kt from the North
Visibility 10 km or more
Broken clouds at a height of 3500 ft

TAF: EGVP 201623Z 2018/2101 35006KT 9999 BKN035

Weather observations and forecasts of more than 4000 airports (METAR and TAF reports).

The available stations are represented by yellow and red dots on the map.

Hover mouse over dot to see the name of the station.

Then click to see weather observations and forecasts.

To change the map : click on the green buttons with a black cross to zoom in, on the green button with a dash to zoom out, or on the green arrows for adjacent maps.